createdAt,value
2023-05-01T00:01:43.902Z,70.48
2023-05-01T00:04:12.532Z,70.45
2023-05-01T00:06:40.591Z,70.45
2023-05-01T00:09:09.092Z,70.68
2023-05-01T00:11:37.078Z,70.46
2023-05-01T00:14:05.100Z,70.25
2023-05-01T00:16:33.053Z,70.67
2023-05-01T00:19:00.880Z,71.71
2023-05-01T00:21:28.524Z,71.85
2023-05-01T00:23:56.912Z,71.63
2023-05-01T00:26:26.661Z,71.73
2023-05-01T00:28:54.472Z,72.07
2023-05-01T00:31:25.356Z,72.03
2023-05-01T00:33:53.287Z,72.30
2023-05-01T00:36:21.565Z,72.10
2023-05-01T00:38:49.823Z,72.15
2023-05-01T00:41:17.658Z,72.13
2023-05-01T00:43:45.650Z,72.14
2023-05-01T00:46:13.414Z,72.21
2023-05-01T00:48:41.693Z,72.21
2023-05-01T00:51:10.115Z,72.21
2023-05-01T00:53:41.505Z,72.35
2023-05-01T00:56:11.209Z,72.34
2023-05-01T00:58:40.094Z,72.47
2023-05-01T01:01:09.367Z,72.66
2023-05-01T01:03:37.209Z,73.08
2023-05-01T01:06:13.217Z,73.01
2023-05-01T01:09:09.122Z,72.91
2023-05-01T01:11:48.150Z,73.29
2023-05-01T01:14:21.160Z,73.03
2023-05-01T01:17:07.972Z,72.95
2023-05-01T01:20:03.534Z,73.01
2023-05-01T01:22:34.270Z,73.00
2023-05-01T01:25:18.739Z,72.93
2023-05-01T01:28:05.234Z,73.02
2023-05-01T01:31:02.675Z,72.97
2023-05-01T01:34:12.404Z,72.95
2023-05-01T01:37:05.891Z,72.89
2023-05-01T01:39:44.992Z,72.99
2023-05-01T01:42:26.120Z,73.08
2023-05-01T01:45:03.003Z,73.14
2023-05-01T01:47:33.103Z,73.14
2023-05-01T01:50:04.945Z,73.11
2023-05-01T01:52:36.082Z,73.26
2023-05-01T01:55:12.949Z,73.22
2023-05-01T01:57:45.157Z,73.42
2023-05-01T02:00:14.161Z,73.33
2023-05-01T02:02:45.423Z,73.41
2023-05-01T02:05:16.863Z,73.48
2023-05-01T02:07:48.354Z,73.53
2023-05-01T02:10:17.745Z,73.86
2023-05-01T02:12:48.453Z,73.93
2023-05-01T02:15:19.287Z,74.10
2023-05-01T02:17:49.331Z,74.20
2023-05-01T02:20:18.368Z,74.34
2023-05-01T02:22:47.375Z,74.33
2023-05-01T02:25:16.354Z,74.33
2023-05-01T02:28:00.569Z,74.53
2023-05-01T02:30:28.301Z,74.58
2023-05-01T02:32:57.455Z,74.52
2023-05-01T02:35:26.985Z,74.64
2023-05-01T02:37:55.235Z,74.64
2023-05-01T02:40:26.908Z,74.80
2023-05-01T02:42:55.622Z,74.90
2023-05-01T02:45:26.961Z,74.92
2023-05-01T02:47:59.301Z,74.91
2023-05-01T02:50:29.637Z,74.97
2023-05-01T02:52:59.450Z,75.10
2023-05-01T02:55:32.930Z,75.13
2023-05-01T02:58:01.230Z,75.19
2023-05-01T03:00:30.222Z,75.10
2023-05-01T03:02:59.143Z,75.10
2023-05-01T03:05:27.327Z,75.12
2023-05-01T03:07:55.156Z,75.11
2023-05-01T03:10:23.952Z,75.10
2023-05-01T03:12:57.927Z,75.11
2023-05-01T03:15:25.707Z,75.17
2023-05-01T03:18:03.577Z,75.16
2023-05-01T03:20:36.511Z,75.19
2023-05-01T03:25:45.296Z,75.32
2023-05-01T03:28:13.783Z,75.29
2023-05-01T03:30:41.579Z,75.45
2023-05-01T03:33:09.489Z,75.40
2023-05-01T03:35:39.323Z,75.77
2023-05-01T03:38:07.432Z,75.84
2023-05-01T03:40:51.823Z,75.98
2023-05-01T03:43:38.088Z,75.87
2023-05-01T03:46:08.030Z,75.96
2023-05-01T03:48:36.868Z,75.65
2023-05-01T03:51:06.454Z,74.91
2023-05-01T03:53:36.289Z,73.16
2023-05-01T03:56:05.800Z,71.95
2023-05-01T03:58:33.612Z,70.04
2023-05-01T04:01:02.688Z,68.75
2023-05-01T04:03:31.432Z,66.36
2023-05-01T04:05:59.597Z,65.20
2023-05-01T04:08:27.461Z,63.47
2023-05-01T04:10:55.494Z,62.35
2023-05-01T04:13:23.269Z,59.86
2023-05-01T04:15:51.549Z,57.43
2023-05-01T04:18:19.753Z,54.31
2023-05-01T04:20:47.910Z,52.36
2023-05-01T04:23:16.274Z,52.10
2023-05-01T04:25:46.905Z,50.90
2023-05-01T04:28:18.533Z,47.88
2023-05-01T04:30:46.471Z,47.43
2023-05-01T04:33:14.595Z,46.29
2023-05-01T04:35:42.627Z,44.88
2023-05-01T04:38:11.218Z,44.69
2023-05-01T04:40:39.335Z,43.60
2023-05-01T04:43:07.460Z,43.07
2023-05-01T04:45:35.744Z,43.60
2023-05-01T04:48:04.331Z,41.91
2023-05-01T04:50:32.586Z,41.89
2023-05-01T04:53:00.583Z,41.44
2023-05-01T04:55:31.100Z,41.23
2023-05-01T04:58:04.641Z,40.36
2023-05-01T05:00:36.270Z,40.46
2023-05-01T05:03:06.560Z,40.62
2023-05-01T05:05:36.907Z,41.59
2023-05-01T05:08:06.308Z,42.76
2023-05-01T05:10:45.330Z,44.26
2023-05-01T05:13:25.746Z,45.42
2023-05-01T05:16:03.213Z,46.57
2023-05-01T05:18:32.010Z,47.30
2023-05-01T05:21:06.742Z,49.21
2023-05-01T05:23:35.143Z,49.74
2023-05-01T05:26:03.705Z,50.20
2023-05-01T05:28:31.956Z,49.62
2023-05-01T05:31:00.000Z,49.49
2023-05-01T05:33:31.156Z,50.47
2023-05-01T05:36:00.040Z,50.09
2023-05-01T05:38:29.714Z,50.09
2023-05-01T05:41:00.415Z,50.71
2023-05-01T05:43:28.415Z,51.12
2023-05-01T05:45:58.176Z,50.42
2023-05-01T05:48:27.364Z,50.16
2023-05-01T05:50:55.671Z,50.19
2023-05-01T05:53:25.754Z,49.88
2023-05-01T05:55:53.941Z,49.75
2023-05-01T05:58:22.826Z,50.01
2023-05-01T06:00:52.448Z,50.12
2023-05-01T06:03:21.052Z,49.85
2023-05-01T06:05:49.692Z,49.70
2023-05-01T06:08:17.663Z,50.06
2023-05-01T06:10:45.825Z,49.97
2023-05-01T06:13:14.859Z,50.27
2023-05-01T06:15:44.966Z,50.54
2023-05-01T06:18:13.124Z,51.81
2023-05-01T06:20:42.528Z,50.18
2023-05-01T06:23:10.310Z,49.53
2023-05-01T06:25:46.738Z,48.91
2023-05-01T06:28:14.719Z,48.31
2023-05-01T06:30:47.964Z,45.40
2023-05-01T06:33:16.081Z,45.50
2023-05-01T06:35:44.241Z,43.85
2023-05-01T06:38:20.197Z,42.18
2023-05-01T06:40:49.409Z,42.28
2023-05-01T06:43:20.247Z,41.29
2023-05-01T06:45:48.437Z,40.63
2023-05-01T06:48:18.541Z,40.55
2023-05-01T06:50:46.504Z,40.28
2023-05-01T06:53:16.812Z,40.47
2023-05-01T06:55:48.440Z,39.88
2023-05-01T06:58:24.038Z,38.13
2023-05-01T07:00:45.962Z,38.32
2023-05-01T07:03:13.994Z,38.29
2023-05-01T07:05:41.878Z,38.09
2023-05-01T07:08:14.664Z,37.61
2023-05-01T07:10:43.193Z,37.20
2023-05-01T07:13:11.088Z,36.64
2023-05-01T07:15:38.654Z,36.24
2023-05-01T07:18:06.536Z,36.15
2023-05-01T07:20:34.348Z,35.78
2023-05-01T07:23:02.106Z,34.80
2023-05-01T07:25:32.534Z,35.15
2023-05-01T07:28:02.559Z,35.77
2023-05-01T07:30:32.494Z,35.59
2023-05-01T07:33:01.171Z,34.80
2023-05-01T07:35:29.045Z,35.19
2023-05-01T07:37:57.086Z,36.12
2023-05-01T07:40:28.054Z,35.11
2023-05-01T07:42:55.806Z,34.59
2023-05-01T07:45:23.712Z,34.23
2023-05-01T07:47:52.916Z,34.03
2023-05-01T07:50:22.283Z,33.69
2023-05-01T07:52:50.569Z,33.97
2023-05-01T07:55:18.676Z,33.31
2023-05-01T07:57:46.359Z,32.81
2023-05-01T08:00:15.172Z,31.40
2023-05-01T08:02:43.628Z,31.95
2023-05-01T08:05:11.728Z,32.54
2023-05-01T08:07:39.241Z,33.15
2023-05-01T08:10:08.332Z,32.63
2023-05-01T08:12:36.432Z,32.56
2023-05-01T08:15:07.909Z,32.09
2023-05-01T08:17:36.419Z,32.17
2023-05-01T08:20:05.198Z,32.56
2023-05-01T08:22:35.382Z,32.49
2023-05-01T08:25:06.142Z,31.12
2023-05-01T08:27:37.887Z,31.25
2023-05-01T08:30:07.170Z,30.92
2023-05-01T08:32:36.435Z,31.07
2023-05-01T08:35:04.672Z,31.67
2023-05-01T08:37:34.855Z,30.92
2023-05-01T08:40:04.554Z,31.69
2023-05-01T08:42:32.625Z,30.53
2023-05-01T08:45:04.225Z,30.68
2023-05-01T08:47:37.945Z,29.44
2023-05-01T08:50:12.981Z,28.07
2023-05-01T08:52:43.120Z,27.96
2023-05-01T08:55:15.939Z,28.83
2023-05-01T08:57:48.056Z,28.99
2023-05-01T09:00:20.055Z,28.62
2023-05-01T09:02:50.866Z,29.36
2023-05-01T09:05:20.719Z,29.28
2023-05-01T09:07:51.747Z,28.99
2023-05-01T09:10:19.525Z,29.32
2023-05-01T09:12:52.858Z,28.29
2023-05-01T09:15:47.866Z,28.05
2023-05-01T09:21:43.677Z,27.73
2023-05-01T09:24:11.618Z,27.42
2023-05-01T09:26:42.259Z,27.30
2023-05-01T09:29:14.335Z,27.01
2023-05-01T09:31:43.737Z,26.76
2023-05-01T09:34:26.168Z,26.41
2023-05-01T09:36:50.079Z,26.88
2023-05-01T09:39:26.077Z,27.06
2023-05-01T09:41:55.870Z,27.24
2023-05-01T09:44:27.605Z,27.05
2023-05-01T09:46:55.591Z,26.65
2023-05-01T09:49:44.208Z,26.00
2023-05-01T09:52:13.071Z,26.11
2023-05-01T09:54:41.234Z,25.89
2023-05-01T09:57:09.923Z,25.75
2023-05-01T09:59:38.433Z,24.05
2023-05-01T10:02:05.992Z,25.00
2023-05-01T10:04:34.902Z,25.36
2023-05-01T10:07:13.640Z,26.42
2023-05-01T10:09:41.911Z,26.05
2023-05-01T10:12:10.559Z,26.12
2023-05-01T10:14:53.539Z,25.06
2023-05-01T10:17:22.394Z,24.66
2023-05-01T10:19:51.381Z,25.34
2023-05-01T10:22:19.097Z,24.14
2023-05-01T10:24:47.120Z,24.47
2023-05-01T10:27:21.642Z,23.64
2023-05-01T10:29:59.574Z,23.83
2023-05-01T10:32:27.500Z,23.83
2023-05-01T10:35:03.790Z,23.84
2023-05-01T10:37:51.624Z,23.80
2023-05-01T10:40:46.811Z,24.41
2023-05-01T10:43:28.987Z,23.40
2023-05-01T10:46:20.479Z,23.41
2023-05-01T10:48:53.973Z,23.64
2023-05-01T10:51:26.470Z,23.96
2023-05-01T10:54:20.859Z,23.69
2023-05-01T10:56:48.678Z,23.18
2023-05-01T10:59:16.539Z,23.36
2023-05-01T11:01:48.151Z,23.45
2023-05-01T11:04:27.644Z,23.63
2023-05-01T11:07:14.512Z,23.26
2023-05-01T11:09:52.198Z,22.99
2023-05-01T11:12:50.513Z,23.17
2023-05-01T11:15:31.698Z,22.00
2023-05-01T11:18:01.926Z,22.88
2023-05-01T11:20:48.353Z,22.76
2023-05-01T11:23:17.862Z,22.52
2023-05-01T11:25:47.276Z,23.56
2023-05-01T11:28:19.037Z,23.46
2023-05-01T11:30:47.174Z,23.95
2023-05-01T11:33:21.725Z,24.33
2023-05-01T11:35:56.324Z,24.10
2023-05-01T11:38:23.951Z,24.21
2023-05-01T11:40:59.962Z,24.31
2023-05-01T11:43:27.872Z,24.89
2023-05-01T11:45:58.085Z,24.98
2023-05-01T11:48:26.638Z,24.92
2023-05-01T11:50:54.581Z,24.21
2023-05-01T11:53:22.445Z,24.51
2023-05-01T11:55:50.994Z,24.02
2023-05-01T11:58:23.690Z,23.50
2023-05-01T12:00:52.241Z,23.80
2023-05-01T12:03:20.262Z,24.11
2023-05-01T12:05:49.913Z,24.60
2023-05-01T12:08:24.424Z,24.48
2023-05-01T12:10:56.657Z,24.53
2023-05-01T12:13:26.780Z,25.03
2023-05-01T12:15:55.866Z,25.33
2023-05-01T12:18:23.914Z,25.06
2023-05-01T12:20:54.850Z,24.96
2023-05-01T12:23:34.040Z,24.89
2023-05-01T12:26:04.568Z,24.90
2023-05-01T12:28:32.299Z,24.50
2023-05-01T12:31:05.385Z,24.73
2023-05-01T12:33:33.174Z,24.24
2023-05-01T12:36:11.338Z,25.00
2023-05-01T12:38:39.507Z,25.18
2023-05-01T12:41:08.870Z,25.12
2023-05-01T12:43:37.773Z,24.68
2023-05-01T12:46:14.760Z,24.72
2023-05-01T12:48:45.495Z,25.17
2023-05-01T12:51:19.969Z,24.56
2023-05-01T12:53:48.713Z,24.56
2023-05-01T12:56:36.192Z,24.48
2023-05-01T12:59:26.404Z,24.43
2023-05-01T13:02:00.237Z,24.72
2023-05-01T13:04:28.700Z,24.75
2023-05-01T13:07:27.883Z,24.74
2023-05-01T13:10:01.356Z,24.66
2023-05-01T13:12:55.029Z,24.05
2023-05-01T13:15:23.733Z,24.53
2023-05-01T13:17:55.417Z,24.74
2023-05-01T13:20:33.246Z,24.47
2023-05-01T13:23:07.324Z,24.86
2023-05-01T13:25:37.499Z,24.57
2023-05-01T13:28:06.269Z,24.59
2023-05-01T13:30:39.140Z,24.10
2023-05-01T13:33:33.429Z,24.78
2023-05-01T13:36:14.213Z,25.15
2023-05-01T13:38:45.714Z,25.54
2023-05-01T13:41:19.144Z,25.13
2023-05-01T13:43:50.096Z,25.28
2023-05-01T13:46:22.567Z,25.41
2023-05-01T13:49:02.857Z,25.88
2023-05-01T13:51:37.741Z,25.98
2023-05-01T13:54:12.531Z,26.03
2023-05-01T13:56:41.264Z,25.99
2023-05-01T13:59:10.367Z,25.50
2023-05-01T14:02:30.308Z,25.75
2023-05-01T14:12:40.333Z,25.81
2023-05-01T14:16:10.957Z,26.07
2023-05-01T14:18:33.345Z,26.47
2023-05-01T14:21:31.673Z,26.58
2023-05-01T14:27:22.073Z,26.48
2023-05-01T14:30:19.576Z,26.50
2023-05-01T14:32:54.981Z,26.38
2023-05-01T14:36:02.592Z,26.17
2023-05-01T14:39:04.466Z,26.58
2023-05-01T14:41:58.939Z,26.52
2023-05-01T14:44:39.674Z,26.23
2023-05-01T14:47:09.573Z,26.11
2023-05-01T14:49:40.470Z,26.03
2023-05-01T14:52:09.516Z,26.05
2023-05-01T14:54:47.636Z,26.07
2023-05-01T14:57:36.771Z,26.38
2023-05-01T15:03:57.257Z,26.69
2023-05-01T15:07:06.410Z,26.75
2023-05-01T15:09:36.076Z,26.78
2023-05-01T15:12:10.194Z,27.05
2023-05-01T15:14:47.839Z,27.07
2023-05-01T15:17:32.360Z,26.99
2023-05-01T15:20:17.813Z,27.02
2023-05-01T15:22:47.515Z,27.20
2023-05-01T15:25:20.566Z,27.03
2023-05-01T15:27:51.186Z,27.04
2023-05-01T15:30:25.867Z,27.03
2023-05-01T15:36:35.320Z,27.54
2023-05-01T15:39:06.043Z,27.37
2023-05-01T15:41:50.927Z,27.24
2023-05-01T15:44:35.894Z,27.08
2023-05-01T15:47:05.501Z,27.11
2023-05-01T15:49:41.810Z,26.81
2023-05-01T15:52:11.541Z,27.11
2023-05-01T15:55:04.167Z,27.27
2023-05-01T15:57:59.177Z,27.18
2023-05-01T16:00:38.749Z,27.24
2023-05-01T16:03:10.708Z,27.11
2023-05-01T16:06:20.345Z,27.22
2023-05-01T16:09:01.177Z,27.55
2023-05-01T16:12:02.602Z,27.76
2023-05-01T16:14:31.183Z,27.85
2023-05-01T16:17:08.047Z,27.85
2023-05-01T16:19:58.036Z,27.59
2023-05-01T16:22:56.163Z,27.81
2023-05-01T16:25:24.019Z,28.06
2023-05-01T16:27:54.144Z,28.13
2023-05-01T16:39:37.909Z,28.37
2023-05-01T16:42:05.730Z,28.51
2023-05-01T16:44:36.030Z,28.66
2023-05-01T16:50:07.039Z,28.70
2023-05-01T16:52:34.745Z,28.68
2023-05-01T16:55:03.169Z,28.78
2023-05-01T16:57:32.782Z,28.80
2023-05-01T17:00:05.565Z,28.84
2023-05-01T17:02:34.498Z,29.04
2023-05-01T17:05:02.953Z,29.14
2023-05-01T17:07:38.035Z,29.25
2023-05-01T17:13:30.503Z,29.54
2023-05-01T17:15:59.103Z,29.79
2023-05-01T17:18:26.664Z,30.63
2023-05-01T17:20:54.517Z,31.33
2023-05-01T17:23:22.512Z,31.88
2023-05-01T17:25:50.206Z,32.70
2023-05-01T17:28:19.191Z,33.01
2023-05-01T17:30:46.776Z,33.34
2023-05-01T17:33:16.152Z,33.85
2023-05-01T17:35:45.361Z,34.21
2023-05-01T17:41:25.576Z,35.47
2023-05-01T17:44:00.215Z,36.88
2023-05-01T17:46:31.301Z,37.65
2023-05-01T17:48:59.299Z,37.67
2023-05-01T17:51:29.673Z,38.07
2023-05-01T17:53:59.160Z,38.24
2023-05-01T17:56:30.559Z,38.61
2023-05-01T17:59:00.032Z,39.10
2023-05-01T18:01:47.892Z,39.16
2023-05-01T18:10:39.351Z,41.07
2023-05-01T18:13:19.539Z,41.33
2023-05-01T18:15:50.540Z,41.99
2023-05-01T18:18:18.414Z,42.63
2023-05-01T18:20:48.458Z,42.89
2023-05-01T18:23:18.194Z,43.32
2023-05-01T18:25:46.059Z,43.52
2023-05-01T18:28:18.266Z,43.85
2023-05-01T18:30:46.096Z,44.39
2023-05-01T18:33:14.212Z,45.02
2023-05-01T18:35:45.542Z,45.27
2023-05-01T18:38:14.468Z,45.54
2023-05-01T18:40:44.273Z,45.81
2023-05-01T18:43:13.697Z,46.07
2023-05-01T18:45:44.512Z,46.76
2023-05-01T18:48:12.387Z,47.52
2023-05-01T18:50:42.562Z,47.08
2023-05-01T18:53:14.055Z,47.35
2023-05-01T18:55:42.129Z,48.02
2023-05-01T18:58:10.605Z,48.26
2023-05-01T19:00:39.386Z,48.39
2023-05-01T19:03:08.465Z,48.48
2023-05-01T19:05:37.327Z,48.79
2023-05-01T19:08:06.954Z,48.93
2023-05-01T19:10:37.294Z,49.21
2023-05-01T19:13:07.266Z,49.52
2023-05-01T19:15:35.762Z,49.92
2023-05-01T19:18:05.684Z,50.65
2023-05-01T19:20:33.397Z,50.88
2023-05-01T19:23:04.011Z,51.02
2023-05-01T19:25:32.057Z,51.50
2023-05-01T19:28:01.617Z,51.58
2023-05-01T19:30:30.387Z,52.12
2023-05-01T19:32:59.351Z,52.69
2023-05-01T19:35:27.171Z,53.08
2023-05-01T19:40:52.452Z,53.48
2023-05-01T19:43:23.632Z,53.54
2023-05-01T19:45:51.654Z,53.78
2023-05-01T19:48:20.161Z,54.13
2023-05-01T19:50:51.363Z,54.25
2023-05-01T19:53:21.439Z,54.72
2023-05-01T19:55:50.001Z,55.01
2023-05-01T19:58:21.465Z,55.54
2023-05-01T20:00:51.550Z,55.80
2023-05-01T20:03:21.844Z,56.23
2023-05-01T20:06:01.744Z,56.52
2023-05-01T20:08:36.573Z,56.80
2023-05-01T20:11:04.582Z,56.85
2023-05-01T20:13:34.908Z,56.86
2023-05-01T20:16:09.008Z,57.00
2023-05-01T20:18:53.277Z,57.36
2023-05-01T20:21:23.050Z,57.78
2023-05-01T20:23:51.818Z,58.02
2023-05-01T20:26:29.174Z,57.79
2023-05-01T20:29:41.488Z,57.89
2023-05-01T20:32:15.138Z,58.24
2023-05-01T20:34:45.181Z,58.20
2023-05-01T20:37:13.824Z,58.26
2023-05-01T20:39:42.694Z,58.41
2023-05-01T20:42:11.788Z,58.57
2023-05-01T20:44:45.648Z,58.65
2023-05-01T20:47:14.708Z,59.15
2023-05-01T20:49:43.570Z,59.92
2023-05-01T20:52:12.930Z,59.83
2023-05-01T20:54:40.851Z,59.80
2023-05-01T20:57:11.612Z,60.19
2023-05-01T20:59:43.583Z,60.48
2023-05-01T21:02:12.238Z,60.31
2023-05-01T21:04:58.087Z,60.69
2023-05-01T21:07:26.029Z,60.69
2023-05-01T21:09:57.940Z,60.73
2023-05-01T21:12:36.595Z,60.71
2023-05-01T21:15:11.607Z,60.89
2023-05-01T21:17:44.335Z,61.01
2023-05-01T21:20:23.959Z,60.93
2023-05-01T21:22:56.862Z,60.90
2023-05-01T21:25:29.751Z,61.38
2023-05-01T21:28:02.923Z,61.50
2023-05-01T21:30:34.836Z,61.45
2023-05-01T21:33:14.594Z,61.65
2023-05-01T21:35:46.013Z,61.90
2023-05-01T21:38:17.841Z,62.25
2023-05-01T21:40:49.541Z,62.27
2023-05-01T21:43:22.438Z,61.88
2023-05-01T21:45:50.707Z,62.05
2023-05-01T21:48:20.897Z,62.19
2023-05-01T21:51:11.209Z,62.13
2023-05-01T21:53:43.846Z,62.25
2023-05-01T21:56:14.918Z,62.21
2023-05-01T21:58:44.694Z,62.59
2023-05-01T22:01:18.389Z,62.69
2023-05-01T22:03:47.388Z,62.90
2023-05-01T22:06:16.452Z,62.73
2023-05-01T22:08:45.311Z,62.90
2023-05-01T22:11:13.507Z,62.66
2023-05-01T22:13:42.904Z,62.60
2023-05-01T22:16:15.677Z,62.77
2023-05-01T22:19:08.339Z,63.26
2023-05-01T22:21:36.480Z,62.93
2023-05-01T22:24:06.128Z,62.68
2023-05-01T22:26:38.235Z,62.93
2023-05-01T22:29:11.840Z,62.76
2023-05-01T22:31:42.294Z,62.57
2023-05-01T22:34:10.875Z,62.83
2023-05-01T22:36:38.815Z,62.85
2023-05-01T22:39:07.178Z,63.28
2023-05-01T22:41:35.683Z,63.03
2023-05-01T22:44:03.687Z,62.92
2023-05-01T22:46:31.801Z,62.97
2023-05-01T22:49:02.679Z,62.76
2023-05-01T22:51:30.917Z,62.72
2023-05-01T22:53:58.691Z,62.79
2023-05-01T22:56:27.410Z,62.82
2023-05-01T22:58:56.262Z,62.91
2023-05-01T23:01:24.328Z,62.83
2023-05-01T23:03:52.848Z,62.81
2023-05-01T23:06:21.761Z,62.67
2023-05-01T23:08:55.946Z,62.87
2023-05-01T23:11:35.001Z,62.66
2023-05-01T23:17:15.344Z,62.85
2023-05-01T23:19:46.305Z,62.83
2023-05-01T23:22:15.011Z,63.18
2023-05-01T23:24:49.019Z,63.17
2023-05-01T23:27:27.145Z,63.26
2023-05-01T23:29:58.653Z,63.00
2023-05-01T23:32:30.205Z,62.89
2023-05-01T23:35:15.061Z,63.07
2023-05-01T23:37:43.323Z,63.33
2023-05-01T23:40:11.504Z,63.39
2023-05-01T23:42:39.700Z,63.30
2023-05-01T23:45:09.050Z,63.29
2023-05-01T23:47:38.329Z,63.29
2023-05-01T23:50:07.146Z,63.51
2023-05-01T23:52:36.364Z,63.37
2023-05-01T23:55:04.757Z,63.47
2023-05-01T23:57:34.054Z,63.39
